createdAt,value
2022-10-28T10:39:37.764Z,19.99
2022-10-28T10:40:50.406Z,20.23
2022-10-28T10:41:57.433Z,20.51
2022-10-28T10:43:17.545Z,20.67
2022-10-28T10:44:21.720Z,20.72
2022-10-28T11:01:40.245Z,20.54
2022-10-28T11:02:46.944Z,21.53
2022-10-28T11:05:03.264Z,22.06
2022-10-28T11:06:24.340Z,21.89
2022-10-28T11:37:37.248Z,20.66
2022-10-28T11:38:53.947Z,21.37
2022-10-28T11:40:17.481Z,22.13
2022-10-28T11:42:11.512Z,22.21
2022-10-28T11:43:15.792Z,22.21
2022-10-28T11:44:23.083Z,22.13
2022-10-28T11:45:31.980Z,22.13
2022-10-28T11:46:51.520Z,22.28
2022-10-28T11:48:00.042Z,22.50
2022-10-28T11:49:26.376Z,22.77
2022-10-28T11:50:45.637Z,23.09
2022-10-28T11:52:02.661Z,23.45
2022-10-28T11:53:33.572Z,24.24
2022-10-28T11:55:02.499Z,25.42
2022-10-28T11:56:28.747Z,25.70
2022-10-28T11:57:53.383Z,26.20
2022-10-28T11:59:16.510Z,27.29
2022-10-28T12:00:50.341Z,27.40
2022-10-28T12:01:57.678Z,28.07
2022-10-28T12:03:17.556Z,27.86
2022-10-28T12:04:36.826Z,27.64
2022-10-28T12:05:50.288Z,28.13
2022-10-28T12:07:03.683Z,28.21
2022-10-28T12:08:34.519Z,27.83
2022-10-28T12:10:05.708Z,27.00
2022-10-28T12:11:12.950Z,26.27
2022-10-28T12:12:51.411Z,25.53
2022-10-28T12:14:17.602Z,23.95
2022-10-28T12:15:41.125Z,24.62
2022-10-28T12:17:03.739Z,24.93
2022-10-28T12:24:54.205Z,26.36
2022-10-28T12:25:59.002Z,26.45
2022-10-28T12:27:06.674Z,26.72
2022-10-28T12:28:19.659Z,26.17
2022-10-28T12:29:24.303Z,26.47
2022-10-28T12:30:34.631Z,26.93
2022-10-28T12:31:45.128Z,27.54
2022-10-28T12:32:49.869Z,27.93
2022-10-28T12:33:56.507Z,27.49
2022-10-28T12:35:15.880Z,27.64
2022-10-28T12:36:26.847Z,27.44
2022-10-28T12:37:37.030Z,27.22
2022-10-28T12:38:56.747Z,27.91
2022-10-28T12:40:10.267Z,27.64
2022-10-28T12:41:17.465Z,27.72
2022-10-28T12:48:05.442Z,28.08
2022-10-28T12:49:21.025Z,27.25
2022-10-28T12:50:28.100Z,26.97
2022-10-28T12:51:39.982Z,27.35
2022-10-28T12:53:02.457Z,27.34
2022-10-28T12:54:58.447Z,27.39
2022-10-28T12:56:02.007Z,27.42
2022-10-28T12:57:09.523Z,27.58
2022-10-28T12:58:16.541Z,27.38
2022-10-28T12:59:29.835Z,27.18
2022-10-28T13:00:43.381Z,27.71
2022-10-28T13:01:52.779Z,27.72
2022-10-28T13:03:04.173Z,27.97
2022-10-28T13:04:05.886Z,28.11
2022-10-28T13:05:13.231Z,28.28
2022-10-28T13:06:23.591Z,28.22
2022-10-28T13:07:32.502Z,27.95
2022-10-28T13:08:48.899Z,27.24
2022-10-28T13:10:11.329Z,27.43
2022-10-28T13:11:21.862Z,27.66
2022-10-28T13:12:29.002Z,27.56
2022-10-28T13:13:56.296Z,27.42
2022-10-28T13:15:00.599Z,27.33
2022-10-28T13:16:11.059Z,26.86
2022-10-28T13:17:34.624Z,27.29
2022-10-28T13:18:38.615Z,27.08
2022-10-28T13:20:01.162Z,27.40
2022-10-28T13:21:35.891Z,27.66
2022-10-28T13:22:46.378Z,27.47
2022-10-28T13:24:05.805Z,27.34
2022-10-28T13:25:40.855Z,27.26
2022-10-28T13:26:44.969Z,27.58
2022-10-28T13:27:46.823Z,27.78
2022-10-28T13:28:51.594Z,27.31
2022-10-28T13:35:04.625Z,27.34
2022-10-28T13:36:16.637Z,27.35
2022-10-28T13:37:22.889Z,27.76
2022-10-28T13:38:26.841Z,28.34
2022-10-28T13:39:28.326Z,28.06
2022-10-28T13:40:33.660Z,27.83
2022-10-28T13:41:38.653Z,27.64
2022-10-28T13:42:48.873Z,27.35
2022-10-28T13:43:50.252Z,27.63
2022-10-28T13:44:51.518Z,27.68
2022-10-28T13:45:55.327Z,27.60
2022-10-28T13:46:59.680Z,27.50
2022-10-28T13:53:10.360Z,27.12
2022-10-28T13:54:25.609Z,26.77
2022-10-28T13:55:42.863Z,26.52
2022-10-28T13:56:51.895Z,26.29
2022-10-28T13:58:24.148Z,26.14
2022-10-28T14:05:05.875Z,25.91
2022-10-28T14:06:07.610Z,25.95
2022-10-28T14:07:12.525Z,26.22
2022-10-28T14:08:30.981Z,26.31
2022-10-28T14:09:35.508Z,26.08
2022-10-28T14:10:39.716Z,26.04
2022-10-28T14:11:41.428Z,25.82
2022-10-28T14:12:47.196Z,25.86
2022-10-28T14:13:59.753Z,25.73
2022-10-28T14:15:10.418Z,25.60
2022-10-28T14:16:33.105Z,25.48
2022-10-28T14:29:23.618Z,25.13
2022-10-28T14:30:25.042Z,24.97
2022-10-28T14:31:42.803Z,25.10
2022-10-28T14:32:50.220Z,24.94
2022-10-28T14:34:11.472Z,25.04
2022-10-28T14:35:15.746Z,25.07
2022-10-28T14:36:19.926Z,25.10
2022-10-28T14:37:32.031Z,25.02
2022-10-28T14:39:04.422Z,24.94
2022-10-28T14:40:31.018Z,24.77
2022-10-28T14:47:06.071Z,24.44
2022-10-28T14:48:44.052Z,24.16
2022-10-28T14:50:03.365Z,24.19
2022-10-28T14:51:12.047Z,24.29
2022-10-28T14:52:18.316Z,24.35
2022-10-28T14:53:28.462Z,24.38
2022-10-28T14:54:35.334Z,24.48
2022-10-28T14:55:40.088Z,24.28
2022-10-28T14:56:45.339Z,24.39
2022-10-28T14:57:46.771Z,24.27
2022-10-28T14:58:49.073Z,24.19
2022-10-28T15:05:05.785Z,24.65
2022-10-28T15:06:43.678Z,24.61
2022-10-28T15:07:45.491Z,24.05
2022-10-28T15:08:46.867Z,24.07
2022-10-28T15:09:53.348Z,24.17
2022-10-28T15:10:55.139Z,23.99
2022-10-28T15:12:01.179Z,23.87
2022-10-28T15:13:04.854Z,23.87
2022-10-28T15:14:24.743Z,23.91
2022-10-28T15:15:28.788Z,23.96
2022-10-28T15:16:30.125Z,23.71
2022-10-28T15:29:05.428Z,24.16
2022-10-28T15:30:20.668Z,24.12
2022-10-28T15:31:22.020Z,24.12
2022-10-28T15:32:23.321Z,24.25
2022-10-28T15:33:32.656Z,24.17
2022-10-28T15:34:34.135Z,24.12
2022-10-28T15:53:42.227Z,22.20
2022-10-28T15:54:58.373Z,21.98
2022-10-28T15:56:18.539Z,22.05
2022-10-28T15:57:26.082Z,21.98
2022-10-28T15:58:32.938Z,21.89
2022-10-28T15:59:34.272Z,21.81
2022-10-28T16:00:50.220Z,21.71
2022-10-28T16:01:55.976Z,21.60
2022-10-28T16:03:05.334Z,21.49
2022-10-28T16:04:35.495Z,21.28
2022-10-28T16:05:39.719Z,21.10
2022-10-28T16:06:41.169Z,20.90
2022-10-28T16:07:45.699Z,20.95
2022-10-28T16:08:47.852Z,21.07
2022-10-28T16:09:50.561Z,20.98
2022-10-28T16:10:56.448Z,21.02
2022-10-28T16:12:02.107Z,20.97
2022-10-28T16:13:09.032Z,20.74
2022-10-28T16:14:26.562Z,20.88
2022-10-28T16:15:31.947Z,20.81
2022-10-28T16:16:33.432Z,20.71
2022-10-28T16:29:05.626Z,20.52
2022-10-28T16:30:07.587Z,20.41
2022-10-28T16:31:16.785Z,20.38
2022-10-28T16:32:34.893Z,20.37
2022-10-28T16:33:38.388Z,20.34
2022-10-28T16:34:39.997Z,20.33
2022-10-28T16:41:06.072Z,20.05
2022-10-28T16:42:11.644Z,20.08
2022-10-28T16:43:19.577Z,20.03
2022-10-28T16:44:22.580Z,20.07
2022-10-28T16:45:24.083Z,20.15
2022-10-28T16:46:25.450Z,20.14
2022-10-28T16:47:27.031Z,20.15
2022-10-28T16:48:30.595Z,20.15
2022-10-28T16:49:32.124Z,20.03
2022-10-28T16:50:33.492Z,20.11
2022-10-28T16:51:34.993Z,20.04
2022-10-28T16:52:36.698Z,19.99
2022-10-28T16:53:38.799Z,19.88
2022-10-28T16:54:40.157Z,19.92
2022-10-28T16:55:41.784Z,19.89
2022-10-28T16:56:43.214Z,19.90
2022-10-28T16:57:44.658Z,19.87
2022-10-28T16:58:46.746Z,19.91
2022-10-28T17:05:07.345Z,19.72
2022-10-28T17:06:10.352Z,19.78
2022-10-28T17:07:16.191Z,19.71
2022-10-28T17:08:42.203Z,19.70
2022-10-28T17:09:42.905Z,19.62
2022-10-28T17:10:44.481Z,19.69
2022-10-28T17:11:45.988Z,19.67
2022-10-28T17:12:47.842Z,19.61
2022-10-28T17:13:49.296Z,19.54
2022-10-28T17:14:50.887Z,19.50
2022-10-28T17:15:53.629Z,19.50
2022-10-28T17:16:55.026Z,19.51
2022-10-28T17:23:02.015Z,19.53
2022-10-28T17:24:04.545Z,19.46
2022-10-28T17:25:06.468Z,19.41
2022-10-28T17:26:08.644Z,19.39
2022-10-28T17:27:10.013Z,19.21
2022-10-28T17:28:11.594Z,18.95
2022-10-28T17:36:05.184Z,18.64
2022-10-28T17:37:07.696Z,18.53
2022-10-28T17:38:09.241Z,18.54
2022-10-28T17:39:16.447Z,18.48
2022-10-28T17:40:22.871Z,18.48
2022-10-28T17:41:24.303Z,18.46
2022-10-28T17:42:25.718Z,18.39
2022-10-28T17:43:27.637Z,18.25
2022-10-28T17:44:29.029Z,18.33
2022-10-28T17:45:30.463Z,18.24
2022-10-28T17:46:31.810Z,18.16
2022-10-28T17:47:34.458Z,18.17
2022-10-28T17:48:35.891Z,18.20
2022-10-28T17:49:41.187Z,18.10
2022-10-28T17:50:44.055Z,18.16
2022-10-28T17:51:45.417Z,18.14
2022-10-28T17:52:46.769Z,18.08
2022-10-28T17:53:54.139Z,18.05
2022-10-28T17:54:59.485Z,18.05
2022-10-28T17:56:02.860Z,18.04
2022-10-28T17:57:04.412Z,18.01
2022-10-28T17:58:05.770Z,18.05
2022-10-28T17:59:07.612Z,18.10
2022-10-28T18:00:10.108Z,18.10
2022-10-28T18:01:11.592Z,18.07
2022-10-28T18:02:14.750Z,17.94
2022-10-28T18:03:16.177Z,18.04
2022-10-28T18:04:17.983Z,18.04
2022-10-28T18:05:19.361Z,18.15
2022-10-28T18:06:20.934Z,18.09
2022-10-28T18:07:22.287Z,18.23
2022-10-28T18:08:23.869Z,18.23
2022-10-28T18:09:25.409Z,18.35
2022-10-28T18:10:26.767Z,18.36
2022-10-28T18:11:31.473Z,18.36
2022-10-28T18:12:32.889Z,18.42
2022-10-28T18:13:37.446Z,18.41
2022-10-28T18:14:39.303Z,18.50
2022-10-28T18:15:40.672Z,18.49
2022-10-28T18:16:42.219Z,18.47
2022-10-28T18:23:04.919Z,18.54
2022-10-28T18:24:06.936Z,18.56
2022-10-28T18:25:08.692Z,18.58
2022-10-28T18:26:14.773Z,18.58
2022-10-28T18:27:16.147Z,18.53
2022-10-28T18:28:17.748Z,18.41
2022-10-28T18:29:22.131Z,18.34
2022-10-28T18:30:23.543Z,18.30
2022-10-28T18:31:25.764Z,18.45
2022-10-28T18:32:27.085Z,18.50
2022-10-28T18:33:35.370Z,18.52
2022-10-28T18:34:36.925Z,18.52
2022-10-28T18:35:38.346Z,18.56
2022-10-28T18:36:39.811Z,18.50
2022-10-28T18:37:41.215Z,18.53
2022-10-28T18:38:42.847Z,18.53
2022-10-28T18:39:44.175Z,18.53
2022-10-28T18:40:47.065Z,18.50
2022-10-28T18:41:52.738Z,18.52
2022-10-28T18:42:54.049Z,18.52
